Time;durP1;ratioP1;P1;durP2;ratioP2;P2;SDS_P1;SDS_P2;PMS_P1;PMS_P2;Temp;Humidity;BMP_temperature;BMP_pressure;BME280_temperature;BME280_humidity;BME280_pressure;Samples;Min_cycle;Max_cycle;Signal;HPM_P1;HPM_P2
2024/03/31 00:00:26;;;;;;;59.85;29.05;;;;;;;5.87;58.97;100056.97;4957223;28;20064;-76
2024/03/31 00:02:52;;;;;;;58.90;29.58;;;;;;;5.85;58.92;100061.34;4980253;28;20037;-76
2024/03/31 00:05:18;;;;;;;51.30;25.75;;;;;;;5.84;59.31;100054.47;4963139;28;20038;-77
2024/03/31 00:07:43;;;;;;;53.17;28.05;;;;;;;5.73;59.57;100056.59;4977498;28;20421;-76
2024/03/31 00:10:09;;;;;;;58.78;28.38;;;;;;;5.53;60.65;100058.06;4962478;28;20046;-77
2024/03/31 00:12:35;;;;;;;48.15;25.77;;;;;;;5.66;59.72;100054.19;4977181;28;20125;-77
2024/03/31 00:15:00;;;;;;;56.10;23.58;;;;;;;5.62;59.78;100057.75;4982568;28;20085;-76
2024/03/31 00:17:26;;;;;;;44.47;23.20;;;;;;;5.56;60.16;100057.13;4975143;28;20257;-76
2024/03/31 00:19:52;;;;;;;49.10;23.02;;;;;;;5.52;60.32;100045.97;4978827;28;20033;-76
2024/03/31 00:22:18;;;;;;;33.53;19.60;;;;;;;5.40;61.00;100043.81;4988368;28;20046;-76
2024/03/31 00:24:43;;;;;;;25.88;15.23;;;;;;;5.20;61.29;100047.84;4976560;28;20137;-76
2024/03/31 00:27:11;;;;;;;25.45;13.55;;;;;;;5.33;60.46;100050.91;4974405;28;20510;-76
2024/03/31 00:29:37;;;;;;;27.40;13.45;;;;;;;5.46;59.76;100047.03;4972897;28;20022;-77
2024/03/31 00:32:03;;;;;;;20.40;10.80;;;;;;;5.51;59.40;100049.50;4994266;28;20041;-76
2024/03/31 00:34:29;;;;;;;17.13;8.75;;;;;;;5.43;59.70;100062.69;4966085;28;20140;-76
2024/03/31 00:36:54;;;;;;;12.57;8.43;;;;;;;5.73;58.35;100062.59;4976064;28;20073;-76
2024/03/31 00:39:20;;;;;;;18.30;10.80;;;;;;;5.68;58.47;100069.66;4979419;28;20041;-76
2024/03/31 00:41:45;;;;;;;25.70;11.77;;;;;;;5.69;58.08;100068.78;4994677;28;20097;-76
2024/03/31 00:44:11;;;;;;;21.38;10.98;;;;;;;5.64;58.55;100065.50;4976037;28;20049;-77
2024/03/31 00:46:36;;;;;;;15.55;9.55;;;;;;;5.42;59.21;100068.75;4961519;28;20325;-75
2024/03/31 00:49:02;;;;;;;12.70;8.32;;;;;;;5.64;58.76;100055.13;4993805;28;20042;-76
2024/03/31 00:51:28;;;;;;;18.67;8.70;;;;;;;5.73;58.58;100048.81;4957710;28;20053;-76
2024/03/31 00:53:54;;;;;;;12.70;7.35;;;;;;;5.62;58.24;100050.00;4962330;28;20038;-77
2024/03/31 00:56:20;;;;;;;12.00;5.78;;;;;;;5.44;59.19;100045.41;4961883;28;20033;-77
2024/03/31 00:58:46;;;;;;;9.40;5.85;;;;;;;5.67;58.09;100050.69;4971289;28;20050;-76
2024/03/31 01:01:11;;;;;;;11.15;5.97;;;;;;;5.78;58.15;100059.84;4964767;28;20045;-77
2024/03/31 01:03:37;;;;;;;9.38;5.65;;;;;;;5.84;58.21;100067.44;4953196;28;20049;-77
2024/03/31 01:06:20;;;;;;;10.20;6.00;;;;;;;5.77;57.92;100066.81;4973098;28;20246;-76
2024/03/31 01:08:51;;;;;;;14.65;6.95;;;;;;;5.87;58.24;100062.97;4989712;28;20278;-76
2024/03/31 01:11:18;;;;;;;13.40;7.00;;;;;;;5.76;58.57;100065.09;4994773;28;20044;-77
2024/03/31 01:13:44;;;;;;;19.02;7.82;;;;;;;5.83;58.50;100061.38;4975324;28;20053;-76
2024/03/31 01:16:12;;;;;;;9.13;6.13;;;;;;;5.79;58.04;100052.03;4978681;28;20029;-77
2024/03/31 01:18:38;;;;;;;10.10;5.15;;;;;;;5.75;57.78;100037.47;4973191;28;20044;-76
2024/03/31 01:21:07;;;;;;;7.47;3.95;;;;;;;5.78;57.29;100028.75;4964245;28;20044;-76
2024/03/31 01:23:56;;;;;;;4.57;3.92;;;;;;;5.79;57.36;100022.66;4972792;28;20046;-76
2024/03/31 01:26:22;;;;;;;4.05;3.65;;;;;;;5.61;57.56;100030.16;4978365;28;20038;-77
2024/03/31 01:28:48;;;;;;;6.45;3.17;;;;;;;5.69;57.27;100034.25;4957647;28;20056;-76
2024/03/31 01:31:14;;;;;;;4.07;3.70;;;;;;;5.73;56.87;100047.06;4980220;28;20041;-77
2024/03/31 01:33:40;;;;;;;5.63;4.60;;;;;;;5.73;56.76;100046.22;4932410;28;20065;-77
2024/03/31 01:36:06;;;;;;;5.22;3.85;;;;;;;5.58;57.07;100043.19;4963564;28;20042;-76
2024/03/31 01:38:31;;;;;;;4.10;3.33;;;;;;;5.60;56.83;100050.94;4956771;28;20056;-76
2024/03/31 01:40:57;;;;;;;3.78;3.10;;;;;;;5.65;56.64;100049.03;4980984;28;20037;-77
2024/03/31 01:43:23;;;;;;;4.50;3.92;;;;;;;5.60;56.41;100040.56;4977258;28;20131;-76
2024/03/31 01:45:51;;;;;;;6.68;4.20;;;;;;;5.48;57.30;100038.34;4976421;28;20092;-76
2024/03/31 01:48:17;;;;;;;4.43;3.38;;;;;;;5.43;57.08;100030.72;4962310;28;20053;-76
2024/03/31 01:50:43;;;;;;;5.32;3.38;;;;;;;5.40;57.09;100029.09;4968575;28;20030;-76
2024/03/31 01:53:08;;;;;;;4.43;4.03;;;;;;;5.36;57.08;100014.53;4961548;28;20407;-76
2024/03/31 01:55:34;;;;;;;4.10;3.67;;;;;;;5.32;57.33;100012.09;4955624;28;20108;-76
2024/03/31 01:57:59;;;;;;;4.72;3.40;;;;;;;5.28;57.73;100008.78;4960183;28;20516;-76
2024/03/31 02:00:25;;;;;;;6.13;4.00;;;;;;;5.30;58.04;100013.88;4958437;28;20042;-77
2024/03/31 02:02:51;;;;;;;5.93;4.05;;;;;;;5.28;57.68;100020.84;4976367;28;20401;-75
2024/03/31 02:05:16;;;;;;;5.40;4.78;;;;;;;5.34;57.62;100025.84;4974781;28;20095;-77
2024/03/31 02:07:42;;;;;;;4.07;3.47;;;;;;;5.34;57.92;100036.22;4972771;28;20088;-77
2024/03/31 02:10:10;;;;;;;4.72;3.85;;;;;;;5.33;57.83;100044.91;4959332;28;20049;-77
2024/03/31 02:12:35;;;;;;;5.13;3.63;;;;;;;5.30;57.36;100047.56;4954628;28;20204;-77
2024/03/31 02:15:01;;;;;;;5.43;3.45;;;;;;;5.31;57.53;100052.72;4962310;28;20121;-76
2024/03/31 02:17:27;;;;;;;3.92;3.00;;;;;;;5.28;57.34;100041.59;4962105;28;20439;-76
2024/03/31 02:19:52;;;;;;;3.72;3.35;;;;;;;5.24;57.16;100040.84;4974854;28;20503;-77
2024/03/31 02:22:18;;;;;;;5.43;3.00;;;;;;;5.15;57.41;100038.53;4977035;28;20255;-77
2024/03/31 02:24:45;;;;;;;3.63;2.88;;;;;;;5.17;57.07;100034.16;4974054;28;20065;-76
2024/03/31 02:27:11;;;;;;;3.20;2.60;;;;;;;5.19;57.26;100046.16;4960867;28;20037;-77
2024/03/31 02:29:37;;;;;;;3.03;2.70;;;;;;;5.24;57.06;100051.22;4972884;28;20053;-77
2024/03/31 02:32:03;;;;;;;3.17;2.58;;;;;;;5.14;57.21;100057.56;4960346;28;20151;-76
2024/03/31 02:34:28;;;;;;;3.10;2.78;;;;;;;5.13;57.32;100074.00;4977428;28;20247;-77
2024/03/31 02:36:54;;;;;;;3.75;3.05;;;;;;;5.00;57.41;100076.09;4962827;28;20125;-76
2024/03/31 02:39:19;;;;;;;6.65;3.85;;;;;;;5.00;57.91;100079.53;4961951;28;20123;-78
2024/03/31 02:41:45;;;;;;;5.43;3.47;;;;;;;5.05;57.98;100079.41;4958197;28;20036;-76
2024/03/31 02:44:10;;;;;;;5.78;3.92;;;;;;;5.03;57.57;100078.59;4993880;28;20053;-77
2024/03/31 02:46:36;;;;;;;8.95;3.60;;;;;;;5.12;56.97;100072.28;4973859;28;20029;-76
2024/03/31 02:49:01;;;;;;;3.95;3.20;;;;;;;5.01;56.66;100082.97;4967859;28;20512;-76
2024/03/31 02:51:27;;;;;;;5.97;4.45;;;;;;;4.89;57.07;100083.34;4975684;28;20092;-77
2024/03/31 02:53:53;;;;;;;5.55;3.75;;;;;;;4.83;57.53;100085.19;4975244;28;20057;-77
2024/03/31 02:56:19;;;;;;;8.85;4.75;;;;;;;4.84;57.56;100086.88;4965565;28;20041;-77
2024/03/31 02:58:45;;;;;;;6.03;3.53;;;;;;;4.81;57.72;100089.56;4956851;28;20473;-76
2024/03/31 03:01:10;;;;;;;4.55;3.63;;;;;;;4.78;57.75;100099.97;4974304;28;20029;-76
2024/03/31 03:03:36;;;;;;;6.38;4.15;;;;;;;4.74;57.82;100102.72;4987108;28;20034;-77
2024/03/31 03:06:03;;;;;;;5.50;4.45;;;;;;;4.71;58.02;100102.81;4975169;28;20576;-77
2024/03/31 03:08:30;;;;;;;4.22;3.72;;;;;;;4.80;58.02;100094.78;4974129;28;20047;-77
2024/03/31 03:10:57;;;;;;;5.30;4.10;;;;;;;4.88;57.56;100097.16;4986637;28;20041;-76
2024/03/31 03:13:24;;;;;;;4.18;3.78;;;;;;;4.94;57.44;100090.06;4966183;28;20030;-76
2024/03/31 03:15:50;;;;;;;7.20;5.13;;;;;;;4.99;57.39;100077.00;4978575;28;20098;-76
2024/03/31 03:18:18;;;;;;;7.90;5.40;;;;;;;4.91;57.66;100084.16;4983347;28;20157;-76
2024/03/31 03:20:48;;;;;;;7.70;5.28;;;;;;;5.04;57.77;100080.31;4993713;28;20038;-76
2024/03/31 03:23:13;;;;;;;7.57;4.72;;;;;;;5.10;57.96;100085.31;4963124;28;20054;-77
2024/03/31 03:25:39;;;;;;;8.60;5.70;;;;;;;5.20;57.92;100081.53;4963013;28;20255;-76
2024/03/31 03:28:05;;;;;;;6.43;5.53;;;;;;;5.38;58.14;100085.31;4968966;28;20037;-77
2024/03/31 03:30:31;;;;;;;8.90;5.53;;;;;;;5.41;57.71;100069.69;4966027;28;20060;-77
2024/03/31 03:32:57;;;;;;;9.38;5.28;;;;;;;5.47;57.27;100053.06;4965978;28;20073;-77
2024/03/31 03:35:23;;;;;;;5.72;5.15;;;;;;;5.54;57.16;100064.94;4961615;28;20412;-77
2024/03/31 03:37:49;;;;;;;7.22;5.35;;;;;;;5.54;57.37;100072.72;4979214;28;20038;-76
2024/03/31 03:40:15;;;;;;;7.22;5.30;;;;;;;5.56;57.67;100072.66;4965945;28;20066;-77
2024/03/31 03:42:41;;;;;;;10.27;5.25;;;;;;;5.59;57.58;100082.94;4973084;28;20053;-77
2024/03/31 03:45:07;;;;;;;6.72;4.05;;;;;;;5.69;57.51;100086.09;4962074;28;20397;-76
2024/03/31 03:47:33;;;;;;;5.97;4.45;;;;;;;5.78;57.67;100084.03;4964504;28;20038;-77
2024/03/31 03:49:59;;;;;;;8.20;4.75;;;;;;;5.70;57.15;100087.78;4975046;28;20547;-76
2024/03/31 03:52:24;;;;;;;8.63;5.25;;;;;;;5.86;56.52;100066.50;4962877;28;20030;-77
2024/03/31 03:54:50;;;;;;;6.40;4.47;;;;;;;5.70;56.75;100056.66;4976474;28;20033;-77
2024/03/31 03:57:15;;;;;;;9.07;4.50;;;;;;;5.77;56.65;100065.94;4983279;28;20149;-76
2024/03/31 03:59:41;;;;;;;6.22;4.82;;;;;;;5.72;56.87;100067.84;4979459;28;20034;-76
2024/03/31 04:02:07;;;;;;;5.95;4.45;;;;;;;5.63;57.20;100071.56;4963286;28;20044;-77
2024/03/31 04:04:34;;;;;;;9.75;4.40;;;;;;;5.94;56.57;100071.41;4979278;28;20026;-76
2024/03/31 04:07:00;;;;;;;5.47;4.63;;;;;;;5.94;56.33;100076.59;4976198;28;20309;-77
2024/03/31 04:09:28;;;;;;;6.43;5.00;;;;;;;5.99;56.44;100079.03;4966515;28;20026;-76
2024/03/31 04:11:53;;;;;;;11.20;5.03;;;;;;;6.01;56.00;100085.03;4975568;28;20387;-77
2024/03/31 04:14:19;;;;;;;6.45;4.25;;;;;;;5.91;56.41;100089.69;4965930;28;20072;-76
2024/03/31 04:16:45;;;;;;;5.78;4.28;;;;;;;5.88;56.69;100090.63;4960872;28;20042;-76
2024/03/31 04:19:10;;;;;;;6.25;4.18;;;;;;;5.97;56.54;100096.41;4964470;28;20054;-77
2024/03/31 04:21:38;;;;;;;6.32;4.68;;;;;;;6.03;56.53;100091.84;4964186;28;20042;-76
2024/03/31 04:24:04;;;;;;;6.10;4.47;;;;;;;6.04;56.62;100109.13;4963738;28;20492;-77
2024/03/31 04:26:29;;;;;;;3.75;3.40;;;;;;;6.06;56.34;100111.66;4966653;28;20034;-76
2024/03/31 04:28:55;;;;;;;4.80;3.60;;;;;;;5.89;56.47;100091.47;4978383;28;20045;-77
2024/03/31 04:31:20;;;;;;;7.22;3.50;;;;;;;5.94;56.55;100089.56;4986003;28;20021;-77
2024/03/31 04:33:46;;;;;;;4.03;2.92;;;;;;;6.03;56.12;100103.97;4960139;28;20163;-76
2024/03/31 04:36:12;;;;;;;4.85;2.90;;;;;;;5.91;56.12;100110.44;4965090;28;20120;-77
2024/03/31 04:38:37;;;;;;;5.63;2.95;;;;;;;5.77;56.85;100102.22;4979254;28;20215;-77
2024/03/31 04:41:03;;;;;;;4.82;3.95;;;;;;;6.00;56.46;100110.13;4965054;28;20552;-76
2024/03/31 04:43:30;;;;;;;5.85;3.25;;;;;;;6.04;56.26;100114.31;4962371;28;20441;-77
2024/03/31 04:46:01;;;;;;;4.47;3.35;;;;;;;6.11;55.69;100121.91;4962561;28;20049;-76
2024/03/31 04:48:26;;;;;;;8.05;3.38;;;;;;;6.03;56.01;100124.72;4994772;28;20041;-77
2024/03/31 04:50:52;;;;;;;3.97;3.10;;;;;;;6.00;55.88;100128.28;4962950;28;20041;-77
2024/03/31 04:53:17;;;;;;;3.10;2.83;;;;;;;5.91;56.18;100118.22;4964071;28;20074;-77
2024/03/31 04:55:43;;;;;;;3.13;2.70;;;;;;;5.85;56.91;100105.44;4979230;28;20030;-76
2024/03/31 04:58:10;;;;;;;3.63;2.75;;;;;;;5.73;56.83;100095.47;4979594;28;20092;-77
2024/03/31 05:00:35;;;;;;;4.97;3.65;;;;;;;5.61;57.28;100099.28;4980350;28;20053;-77
2024/03/31 05:03:01;;;;;;;2.38;2.17;;;;;;;5.88;56.88;100116.56;4976744;28;20586;-77
2024/03/31 05:05:26;;;;;;;3.17;2.60;;;;;;;5.93;56.58;100126.78;4963693;28;20124;-77
2024/03/31 05:07:52;;;;;;;2.97;2.30;;;;;;;5.96;56.46;100124.09;4976781;28;20045;-77
2024/03/31 05:10:17;;;;;;;2.35;1.52;;;;;;;5.71;56.97;100108.47;4997219;28;20060;-78
2024/03/31 05:12:43;;;;;;;2.65;2.30;;;;;;;5.61;57.15;100113.13;4961187;28;20038;-77
2024/03/31 05:15:08;;;;;;;2.95;2.00;;;;;;;5.73;57.09;100117.06;4964209;28;20037;-77
2024/03/31 05:17:34;;;;;;;4.78;1.90;;;;;;;5.73;56.75;100114.47;4968198;28;20044;-77
2024/03/31 05:20:00;;;;;;;3.03;1.77;;;;;;;5.87;56.71;100114.00;4975021;28;20124;-77
2024/03/31 05:22:25;;;;;;;1.95;1.40;;;;;;;5.78;56.51;100115.16;4963112;28;20481;-77
2024/03/31 05:24:53;;;;;;;2.47;1.17;;;;;;;5.87;56.66;100108.81;4958033;28;20033;-77
2024/03/31 05:27:19;;;;;;;3.50;1.88;;;;;;;5.99;56.27;100113.59;4956728;28;20140;-76
2024/03/31 05:29:44;;;;;;;1.98;1.40;;;;;;;6.05;55.69;100117.75;4975264;28;20022;-77
2024/03/31 05:32:10;;;;;;;3.13;1.65;;;;;;;6.13;55.81;100115.75;4976675;28;20034;-77
2024/03/31 05:34:58;;;;;;;3.80;1.73;;;;;;;6.06;56.26;100098.69;4960806;28;20047;-77
2024/03/31 05:37:24;;;;;;;3.22;1.58;;;;;;;5.88;56.51;100105.31;4964567;28;20042;-77
2024/03/31 05:39:49;;;;;;;5.72;2.65;;;;;;;5.84;56.69;100119.31;4961765;28;20275;-77
2024/03/31 05:42:14;;;;;;;5.32;2.30;;;;;;;5.98;56.51;100118.84;4994631;28;20114;-77
2024/03/31 05:44:40;;;;;;;5.10;2.65;;;;;;;6.14;55.85;100106.22;4963893;28;20038;-77
2024/03/31 05:47:06;;;;;;;4.03;1.88;;;;;;;6.15;56.08;100102.72;4957172;28;20141;-77
2024/03/31 05:49:32;;;;;;;3.25;2.50;;;;;;;5.94;56.40;100094.75;4964899;28;20018;-77
2024/03/31 05:51:57;;;;;;;5.28;2.58;;;;;;;5.95;56.58;100106.84;4957066;28;20040;-77
2024/03/31 05:54:23;;;;;;;5.82;2.10;;;;;;;6.03;56.86;100110.00;4963675;28;20057;-76
2024/03/31 05:56:49;;;;;;;1.98;1.70;;;;;;;5.96;56.76;100110.28;4974986;28;20041;-76
2024/03/31 05:59:15;;;;;;;2.97;2.58;;;;;;;6.04;56.63;100111.72;4966920;28;20038;-77
2024/03/31 06:01:41;;;;;;;3.05;1.98;;;;;;;6.11;56.28;100095.97;4977582;28;20048;-76
2024/03/31 06:04:07;;;;;;;2.85;1.70;;;;;;;6.14;56.50;100094.09;4970262;28;20034;-76
2024/03/31 06:06:33;;;;;;;2.33;2.08;;;;;;;6.17;56.17;100101.78;4978648;28;20045;-76
2024/03/31 06:08:59;;;;;;;4.13;2.10;;;;;;;6.29;55.96;100103.97;4976620;28;20598;-77
2024/03/31 06:11:24;;;;;;;4.63;1.80;;;;;;;6.35;55.92;100102.94;4974586;28;20034;-77
2024/03/31 06:13:52;;;;;;;2.67;2.20;;;;;;;6.35;55.70;100104.66;4958618;28;20045;-77
2024/03/31 06:16:18;;;;;;;2.58;2.38;;;;;;;6.42;55.94;100101.81;4982665;28;20029;-77
2024/03/31 06:18:44;;;;;;;2.60;2.30;;;;;;;6.40;55.36;100097.59;4961565;28;20049;-76
2024/03/31 06:21:10;;;;;;;3.40;3.10;;;;;;;6.43;55.39;100103.50;4960659;28;20081;-77
2024/03/31 06:23:36;;;;;;;3.00;2.67;;;;;;;6.43;55.28;100107.84;4963509;28;20037;-77
2024/03/31 06:26:03;;;;;;;5.50;2.65;;;;;;;6.45;55.52;100112.06;4962212;28;20046;-77
2024/03/31 06:28:30;;;;;;;6.68;2.40;;;;;;;6.61;54.99;100121.94;4966441;28;20046;-77
2024/03/31 06:30:55;;;;;;;3.13;2.70;;;;;;;6.43;55.04;100123.41;4958542;28;20558;-76
2024/03/31 06:33:21;;;;;;;2.65;1.85;;;;;;;6.52;55.05;100128.28;4966163;28;20037;-77
2024/03/31 06:35:49;;;;;;;2.00;1.77;;;;;;;6.55;54.71;100137.72;4972970;28;20030;-76
2024/03/31 06:38:14;;;;;;;3.53;2.05;;;;;;;6.58;55.00;100137.63;4979540;28;20064;-77
2024/03/31 06:40:41;;;;;;;4.40;2.40;;;;;;;6.65;54.82;100139.09;4962323;28;20027;-77
2024/03/31 06:43:09;;;;;;;3.55;2.58;;;;;;;6.63;54.95;100135.72;4970866;28;21295;-77
2024/03/31 06:45:35;;;;;;;3.13;2.38;;;;;;;6.58;54.82;100133.28;4960248;28;20048;-76
2024/03/31 06:48:00;;;;;;;3.35;2.30;;;;;;;6.69;54.51;100132.91;4957358;28;20046;-77
2024/03/31 06:50:26;;;;;;;3.15;2.70;;;;;;;6.72;54.45;100125.00;4979307;28;20018;-77
2024/03/31 06:52:52;;;;;;;3.97;3.33;;;;;;;6.79;54.30;100136.84;4973881;28;20038;-77
2024/03/31 06:55:18;;;;;;;6.47;2.60;;;;;;;6.83;54.34;100122.84;4961658;28;20033;-76
2024/03/31 06:57:44;;;;;;;4.35;2.75;;;;;;;6.92;54.36;100113.88;4957436;28;20156;-76
2024/03/31 07:00:11;;;;;;;3.95;3.25;;;;;;;6.88;54.51;100107.94;4953634;28;20044;-77
2024/03/31 07:02:37;;;;;;;4.75;3.05;;;;;;;6.76;54.59;100100.59;4970054;28;20041;-76
2024/03/31 07:05:03;;;;;;;6.38;3.28;;;;;;;6.61;55.49;100101.16;4954361;28;20170;-76
2024/03/31 07:07:28;;;;;;;5.85;3.22;;;;;;;6.46;55.81;100098.22;4973827;28;20042;-76
2024/03/31 07:09:55;;;;;;;6.03;3.85;;;;;;;6.41;56.19;100102.69;4957008;28;20037;-77
2024/03/31 07:12:21;;;;;;;5.60;3.88;;;;;;;6.49;55.89;100077.31;4968319;28;20049;-76
2024/03/31 07:14:47;;;;;;;5.90;4.25;;;;;;;6.25;56.84;100067.78;4955038;28;20056;-76
2024/03/31 07:17:14;;;;;;;6.28;4.07;;;;;;;6.28;57.19;100076.34;4962270;28;20042;-77
2024/03/31 07:19:43;;;;;;;5.40;3.45;;;;;;;6.40;56.56;100088.03;4962751;28;20101;-76
2024/03/31 07:22:09;;;;;;;4.95;2.97;;;;;;;6.62;56.37;100092.44;4957052;28;20122;-76
2024/03/31 07:24:35;;;;;;;4.93;2.78;;;;;;;6.59;56.52;100088.22;4963889;28;20123;-76
2024/03/31 07:27:02;;;;;;;3.20;2.70;;;;;;;6.84;55.24;100093.38;4957496;28;20026;-76
2024/03/31 07:29:27;;;;;;;4.05;2.33;;;;;;;6.89;54.79;100107.03;4974482;28;20033;-77
2024/03/31 07:31:53;;;;;;;2.63;1.90;;;;;;;6.77;54.98;100117.03;4974414;28;20029;-76
2024/03/31 07:34:20;;;;;;;6.55;2.30;;;;;;;6.99;54.50;100119.69;4980777;28;20029;-76
2024/03/31 07:36:46;;;;;;;3.22;2.45;;;;;;;6.95;54.60;100120.69;4977165;28;20107;-76
2024/03/31 07:39:12;;;;;;;4.93;1.83;;;;;;;7.17;53.91;100120.75;4957056;28;20073;-76
2024/03/31 07:41:38;;;;;;;2.97;1.95;;;;;;;7.41;53.78;100109.41;4980628;28;20105;-76
2024/03/31 07:44:03;;;;;;;3.17;2.58;;;;;;;7.34;53.32;100107.97;4971031;28;20168;-76
2024/03/31 07:46:29;;;;;;;3.67;1.90;;;;;;;7.45;53.21;100103.19;4978460;28;20521;-76
2024/03/31 07:48:56;;;;;;;1.90;1.00;;;;;;;7.38;52.50;100099.16;4973358;28;20038;-77
2024/03/31 07:51:22;;;;;;;1.98;1.20;;;;;;;7.45;52.22;100115.34;4961559;28;20049;-77
2024/03/31 07:53:47;;;;;;;2.00;1.70;;;;;;;7.49;51.79;100127.34;4973911;28;20038;-77
2024/03/31 07:56:13;;;;;;;2.17;1.63;;;;;;;7.43;52.32;100120.59;4974411;28;20030;-76
2024/03/31 07:58:38;;;;;;;2.13;0.98;;;;;;;7.52;52.44;100116.81;4979171;28;20048;-76
2024/03/31 08:01:04;;;;;;;2.97;1.70;;;;;;;7.71;51.82;100123.00;4960132;28;20052;-77
2024/03/31 08:03:30;;;;;;;3.15;1.58;;;;;;;7.72;51.40;100135.09;4980289;28;20046;-76
2024/03/31 08:05:57;;;;;;;2.10;0.80;;;;;;;7.64;51.03;100131.09;4962082;28;20049;-77
2024/03/31 08:08:22;;;;;;;1.65;0.95;;;;;;;7.61;51.29;100126.88;4979228;28;20041;-77
2024/03/31 08:10:48;;;;;;;2.90;0.88;;;;;;;7.61;51.06;100132.06;4978084;28;20068;-77
2024/03/31 08:13:13;;;;;;;1.35;0.75;;;;;;;7.57;51.34;100130.50;4961794;28;20046;-77
2024/03/31 08:15:41;;;;;;;1.30;0.60;;;;;;;7.56;50.85;100128.81;4964119;28;20037;-77
2024/03/31 08:18:09;;;;;;;1.70;0.50;;;;;;;7.58;51.37;100121.81;4976481;28;20033;-76
2024/03/31 08:20:35;;;;;;;1.48;0.55;;;;;;;7.79;51.40;100120.09;4978037;28;20116;-76
2024/03/31 08:23:01;;;;;;;1.63;0.65;;;;;;;8.00;50.88;100110.53;4974573;28;20045;-77
2024/03/31 08:25:27;;;;;;;3.08;0.95;;;;;;;8.09;50.73;100125.81;4967160;28;20037;-76
2024/03/31 08:27:53;;;;;;;1.33;0.65;;;;;;;8.19;50.35;100121.06;4963365;28;20029;-75
2024/03/31 08:30:18;;;;;;;1.40;0.63;;;;;;;8.11;49.87;100124.00;4960528;28;20548;-75
2024/03/31 08:32:45;;;;;;;4.15;0.80;;;;;;;7.99;50.33;100128.84;4966185;28;20103;-75
2024/03/31 08:35:10;;;;;;;4.35;1.42;;;;;;;7.78;50.63;100122.75;4979502;28;20041;-75
2024/03/31 08:37:36;;;;;;;4.22;2.05;;;;;;;7.68;51.17;100120.50;4963780;28;20037;-75
2024/03/31 08:40:01;;;;;;;3.45;2.60;;;;;;;7.50;51.77;100121.22;4976449;28;20037;-75
2024/03/31 08:42:34;;;;;;;4.70;2.75;;;;;;;7.55;51.85;100121.91;4963263;28;20095;-75
2024/03/31 08:45:02;;;;;;;2.22;1.30;;;;;;;7.50;51.47;100123.81;4970748;28;20045;-76
2024/03/31 08:47:31;;;;;;;5.05;1.20;;;;;;;7.44;51.81;100124.88;4979237;28;20442;-75
2024/03/31 08:49:58;;;;;;;1.70;0.73;;;;;;;7.52;51.66;100127.19;4973584;28;20034;-75
2024/03/31 08:52:28;;;;;;;3.28;1.00;;;;;;;7.41;51.87;100124.19;4962709;28;20570;-75
2024/03/31 08:54:56;;;;;;;2.15;1.35;;;;;;;7.56;51.87;100128.81;4979945;28;20037;-75
2024/03/31 08:57:22;;;;;;;1.48;0.70;;;;;;;7.32;52.32;100123.63;4955830;28;20077;-77
2024/03/31 08:59:48;;;;;;;2.45;0.68;;;;;;;7.51;52.15;100120.28;4979848;28;20329;-76
2024/03/31 09:02:21;;;;;;;7.60;4.60;;;;;;;7.52;52.06;100115.03;4957918;28;20140;-76
2024/03/31 09:04:47;;;;;;;3.50;1.67;;;;;;;7.27;52.29;100122.13;4959899;28;20093;-76
2024/03/31 09:07:12;;;;;;;3.55;1.38;;;;;;;7.29;52.65;100128.09;4957535;28;20328;-77
2024/03/31 09:09:42;;;;;;;3.30;1.13;;;;;;;7.40;52.48;100125.06;4993946;28;20033;-76
2024/03/31 09:12:11;;;;;;;3.05;1.25;;;;;;;7.51;52.42;100120.28;4970373;28;20042;-76
2024/03/31 09:14:42;;;;;;;2.40;1.38;;;;;;;7.66;52.46;100116.28;4961795;28;20049;-76
2024/03/31 09:17:09;;;;;;;4.45;1.20;;;;;;;7.65;52.03;100115.44;4974016;28;20037;-76
2024/03/31 09:19:35;;;;;;;1.48;1.13;;;;;;;7.60;52.73;100109.59;4976714;28;20026;-76
2024/03/31 09:22:00;;;;;;;1.58;1.02;;;;;;;7.45;52.86;100105.78;4961447;28;20041;-77
2024/03/31 09:24:28;;;;;;;2.88;1.23;;;;;;;7.54;52.62;100109.78;4976178;28;20050;-77
2024/03/31 09:26:55;;;;;;;3.03;1.60;;;;;;;7.71;52.10;100112.59;4976547;28;20068;-76
2024/03/31 09:29:21;;;;;;;1.70;1.23;;;;;;;7.72;52.50;100119.50;4974940;28;20848;-77
2024/03/31 09:31:47;;;;;;;3.83;1.15;;;;;;;7.83;52.21;100113.00;4994076;28;20136;-76
2024/03/31 09:34:13;;;;;;;1.52;1.00;;;;;;;7.82;52.13;100111.31;4971069;28;20045;-76
2024/03/31 09:36:39;;;;;;;1.35;0.90;;;;;;;7.83;52.26;100111.25;4974252;28;20040;-77
2024/03/31 09:39:05;;;;;;;2.13;1.30;;;;;;;8.03;52.10;100114.81;4967290;28;20041;-77
2024/03/31 09:41:31;;;;;;;2.78;1.02;;;;;;;8.05;52.04;100113.81;4973754;28;20041;-77
2024/03/31 09:43:57;;;;;;;2.03;1.40;;;;;;;7.92;51.59;100104.84;4956698;28;20166;-77
2024/03/31 09:46:23;;;;;;;1.70;1.20;;;;;;;8.09;51.67;100106.72;4956338;28;20037;-77
2024/03/31 09:48:51;;;;;;;3.92;1.85;;;;;;;8.22;51.29;100097.47;4973837;28;20041;-76
2024/03/31 09:51:22;;;;;;;2.78;1.42;;;;;;;8.35;50.48;100103.03;4961691;28;20791;-77
2024/03/31 09:53:59;;;;;;;4.43;1.02;;;;;;;8.41;50.59;100110.56;4973296;28;20543;-77
2024/03/31 09:56:39;;;;;;;2.67;0.80;;;;;;;8.68;50.39;100105.06;4955172;28;20042;-77
2024/03/31 09:59:10;;;;;;;1.30;0.95;;;;;;;8.82;49.45;100100.09;4955068;28;20218;-77
2024/03/31 10:01:42;;;;;;;1.60;1.10;;;;;;;8.98;49.21;100090.69;4976482;28;20041;-77
2024/03/31 10:04:15;;;;;;;2.25;1.58;;;;;;;9.02;48.84;100077.53;4966433;28;20061;-77
2024/03/31 10:06:42;;;;;;;1.15;0.85;;;;;;;9.57;48.45;100078.34;4956892;28;20029;-77
2024/03/31 10:09:08;;;;;;;1.25;1.00;;;;;;;9.59;47.65;100067.84;4985441;28;20082;-76
2024/03/31 10:11:34;;;;;;;2.30;1.65;;;;;;;9.33;48.24;100066.50;4971408;28;20034;-76
2024/03/31 10:14:00;;;;;;;5.78;1.00;;;;;;;9.41;47.74;100074.81;4953685;28;20119;-77
2024/03/31 10:16:26;;;;;;;3.40;1.08;;;;;;;9.61;47.03;100068.63;4952186;28;20430;-76
2024/03/31 10:18:56;;;;;;;4.13;2.40;;;;;;;9.78;47.36;100063.41;4972056;28;20048;-76
2024/03/31 10:21:23;;;;;;;3.47;1.15;;;;;;;9.96;46.26;100053.00;4979246;28;20562;-76
2024/03/31 10:23:50;;;;;;;1.05;0.70;;;;;;;10.08;46.30;100055.00;4958821;28;20041;-77
2024/03/31 10:26:15;;;;;;;2.45;0.95;;;;;;;10.22;46.18;100052.53;4945500;28;20247;-78
2024/03/31 10:28:42;;;;;;;2.40;0.95;;;;;;;10.66;45.33;100042.41;4966431;28;20103;-77
2024/03/31 10:31:08;;;;;;;2.25;0.80;;;;;;;10.81;44.71;100042.47;4945332;28;20611;-77
2024/03/31 10:33:34;;;;;;;2.50;0.95;;;;;;;10.71;44.56;100043.03;4961528;28;20492;-77
2024/03/31 10:36:02;;;;;;;3.97;1.35;;;;;;;11.22;44.30;100041.97;4966529;28;20041;-77
2024/03/31 10:38:29;;;;;;;1.88;0.68;;;;;;;10.90;44.06;100043.72;4958767;28;20822;-76
2024/03/31 10:40:55;;;;;;;1.02;0.60;;;;;;;11.34;44.38;100037.81;4957818;28;20053;-76
2024/03/31 10:43:22;;;;;;;1.35;1.20;;;;;;;11.49;43.69;100027.44;4951270;28;20364;-76
2024/03/31 10:45:48;;;;;;;5.40;1.00;;;;;;;11.57;44.03;100026.03;4973724;28;20034;-77
2024/03/31 10:48:15;;;;;;;1.75;1.00;;;;;;;11.45;43.75;100022.34;4964552;28;20075;-77
2024/03/31 10:50:43;;;;;;;1.25;0.77;;;;;;;11.37;43.64;100024.53;4971818;28;20022;-75
2024/03/31 10:53:09;;;;;;;2.80;0.88;;;;;;;11.61;43.87;100024.09;4966492;28;20127;-77
2024/03/31 10:55:42;;;;;;;2.50;1.30;;;;;;;11.94;43.34;100020.47;4971133;28;20042;-76
2024/03/31 10:58:13;;;;;;;3.92;1.05;;;;;;;11.91;43.08;100021.50;4970744;28;20045;-77
2024/03/31 11:00:43;;;;;;;7.32;1.45;;;;;;;11.73;42.11;100018.16;4970134;28;20033;-77
2024/03/31 11:03:09;;;;;;;1.98;1.48;;;;;;;11.59;43.66;100015.47;4956403;28;20060;-76
2024/03/31 11:05:34;;;;;;;3.75;1.30;;;;;;;11.92;42.85;100017.09;4975494;28;20050;-77
2024/03/31 11:08:02;;;;;;;1.60;0.93;;;;;;;12.14;42.49;100017.50;4976571;28;20175;-77
2024/03/31 11:10:31;;;;;;;1.48;1.10;;;;;;;12.18;41.47;100023.38;4993365;28;20060;-77
2024/03/31 11:12:56;;;;;;;3.03;1.00;;;;;;;11.81;42.74;100023.78;4982923;28;20042;-77
2024/03/31 11:15:22;;;;;;;1.48;1.13;;;;;;;12.75;41.83;100017.31;4971602;28;20101;-76
2024/03/31 11:17:48;;;;;;;1.85;0.98;;;;;;;13.65;40.89;100015.88;4974103;28;20041;-76
2024/03/31 11:20:14;;;;;;;1.90;1.27;;;;;;;13.88;39.30;100011.75;4951864;28;20033;-76
2024/03/31 11:22:40;;;;;;;1.40;0.93;;;;;;;14.18;38.34;100000.06;4957497;28;20038;-76
2024/03/31 11:25:07;;;;;;;2.25;0.75;;;;;;;13.63;39.12;100002.88;4989056;28;20033;-77
2024/03/31 11:27:33;;;;;;;2.13;0.93;;;;;;;13.00;41.04;99996.44;4952252;28;20046;-77